Hovedside
METAR-TAF:

METAR-TAF

Lufthavner :

Skavsta lufthavn

Stockholm-Skavsta, Sverige

breddegrad: 58-47N, lengdegrad: 016-55E, høyde over havet: 43 m

Gjeldene værobservasjon

Denne rapporten ble laget for 28 minutter siden, klokken 15:20 UTC
Vind 6 kt fra Vest-sørvest, skiftende mellom Sør-sørvest og Nordvest
Temperatur 26°C
Luftfuktighet 39%
Trykk 1018 hPa
Sikt 10 km eller mer
ingen skyer under 1500 m og ingen bygeskyer

METAR: ESKN 241520Z 25006KT 210V320 CAVOK 26/11 Q1018

Tid: 17:48 (15:48 UTC)

Varsel

Denne rapporten ble laget for 1 time og 18 minutter siden, klokken 14:30 UTC
Varsel gyldig fra 24. klokken 15 UTC til 25. klokken 15 UTC
Vind 7 kt fra Sør-sørøst
Sikt 10 km eller mer
ingen skyer under 1500 m og ingen bygeskyer

TAF: ESKN 241430Z 2415/2515 15007KT CAVOK

Værobservasjoner og værvarsel for over 4000 flyplasser (METAR- og TAF-rapporter).

Tilgjengelige stasjoner er representert av de røde og gule prikkene på kartet.

Hold musepekeren over prikken for å se navnet på stasjonen.

Klikk så for å se værobservasjoner og -varsler.

For å forandre kartet kan du klikke på den grønne knappen med svart kryss for å zoome inn, på den grønne knappen med strek for å zoome ut, eller på de grønne pilene for å se tilstøtende kart.


METAR-TAF: